createdAt,value
2017-10-15T00:02:16.770Z,85.80
2017-10-15T00:04:45.610Z,84.90
2017-10-15T00:07:13.703Z,84.20
2017-10-15T00:09:41.779Z,83.60
2017-10-15T00:12:09.874Z,83.30
2017-10-15T00:14:38.734Z,84.10
2017-10-15T00:17:06.838Z,83.90
2017-10-15T00:19:35.679Z,84.40
2017-10-15T00:22:03.755Z,83.50
2017-10-15T00:24:31.847Z,84.60
2017-10-15T00:26:59.924Z,85.10
2017-10-15T00:29:28.015Z,85.10
2017-10-15T00:31:56.087Z,85.30
2017-10-15T00:34:24.939Z,86.70
2017-10-15T00:36:53.035Z,87.60
2017-10-15T00:39:21.136Z,86.30
2017-10-15T00:41:49.975Z,86.30
2017-10-15T00:44:18.051Z,86.60
2017-10-15T00:46:46.155Z,86.20
2017-10-15T00:49:14.227Z,86.70
2017-10-15T00:51:42.302Z,86.80
2017-10-15T00:54:11.163Z,87.40
2017-10-15T00:56:39.242Z,88.00
2017-10-15T00:59:07.351Z,87.20
2017-10-15T01:01:36.558Z,86.70
2017-10-15T01:04:04.626Z,86.40
2017-10-15T01:06:32.724Z,86.30
2017-10-15T01:09:01.945Z,87.50
2017-10-15T01:11:30.047Z,86.70
2017-10-15T01:13:58.118Z,86.80
2017-10-15T01:16:26.200Z,86.80
2017-10-15T01:18:55.067Z,87.00
2017-10-15T01:21:23.139Z,86.20
2017-10-15T01:23:51.230Z,86.10
2017-10-15T01:26:19.387Z,85.50
2017-10-15T01:28:47.458Z,85.70
2017-10-15T01:31:15.531Z,86.00
2017-10-15T01:33:43.639Z,85.60
2017-10-15T01:36:11.710Z,85.20
2017-10-15T01:38:39.787Z,86.50
2017-10-15T01:41:07.876Z,87.10
2017-10-15T01:43:35.955Z,88.80
2017-10-15T01:46:04.053Z,89.70
2017-10-15T01:48:32.555Z,90.20
2017-10-15T01:51:00.626Z,90.10
2017-10-15T01:53:28.699Z,90.30
2017-10-15T01:55:56.806Z,90.70
2017-10-15T01:58:24.879Z,91.00
2017-10-15T02:00:52.955Z,90.90
2017-10-15T02:03:21.054Z,91.00
2017-10-15T02:05:49.127Z,90.80
2017-10-15T02:08:17.223Z,90.90
2017-10-15T02:10:45.318Z,91.20
2017-10-15T02:13:14.166Z,91.10
2017-10-15T02:15:42.238Z,90.80
2017-10-15T02:18:10.335Z,90.50
2017-10-15T02:20:38.411Z,91.10
2017-10-15T02:23:06.515Z,91.30
2017-10-15T02:25:34.591Z,91.20
2017-10-15T02:28:02.676Z,91.40
2017-10-15T02:30:30.785Z,91.30
2017-10-15T02:32:58.869Z,90.80
2017-10-15T02:35:26.939Z,90.50
2017-10-15T02:37:55.038Z,90.10
2017-10-15T02:40:23.879Z,89.40
2017-10-15T02:42:51.975Z,89.00
2017-10-15T02:45:20.049Z,89.30
2017-10-15T02:47:48.149Z,88.90
2017-10-15T02:50:16.986Z,89.50
2017-10-15T02:52:45.497Z,88.90
2017-10-15T02:57:42.899Z,90.00
2017-10-15T03:00:10.999Z,90.20
2017-10-15T03:02:39.838Z,90.40
2017-10-15T03:05:08.680Z,90.50
2017-10-15T03:07:38.275Z,90.40
2017-10-15T03:10:06.367Z,90.20
2017-10-15T03:12:34.451Z,89.60
2017-10-15T03:15:02.543Z,89.70
2017-10-15T03:17:30.620Z,89.70
2017-10-15T03:19:58.726Z,89.60
2017-10-15T03:22:27.570Z,90.10
2017-10-15T03:24:55.662Z,89.90
2017-10-15T03:27:24.525Z,90.50
2017-10-15T03:29:52.998Z,90.20
2017-10-15T03:32:21.467Z,90.40
2017-10-15T03:34:49.575Z,90.10
2017-10-15T03:37:17.650Z,90.30
2017-10-15T03:39:45.727Z,89.50
2017-10-15T03:42:13.818Z,90.20
2017-10-15T03:44:42.674Z,89.90
2017-10-15T03:47:10.747Z,88.60
2017-10-15T03:49:38.841Z,87.30
2017-10-15T03:52:07.707Z,87.60
2017-10-15T03:54:35.783Z,86.80
2017-10-15T03:57:03.855Z,87.00
2017-10-15T03:59:31.963Z,87.00
2017-10-15T04:02:00.042Z,87.30
2017-10-15T04:04:28.506Z,87.20
2017-10-15T04:06:57.739Z,86.50
2017-10-15T04:09:25.838Z,86.10
2017-10-15T04:11:53.919Z,86.10
2017-10-15T04:14:21.994Z,86.40
2017-10-15T04:16:50.099Z,86.60
2017-10-15T04:19:18.943Z,86.50
2017-10-15T04:21:47.020Z,86.40
2017-10-15T04:24:15.118Z,86.90
2017-10-15T04:26:43.963Z,87.90
2017-10-15T04:29:12.051Z,87.00
2017-10-15T04:31:40.158Z,86.20
2017-10-15T04:34:08.999Z,87.20
2017-10-15T04:36:37.075Z,87.20
2017-10-15T04:39:05.167Z,87.40
2017-10-15T04:41:33.666Z,86.80
2017-10-15T04:44:01.738Z,86.80
2017-10-15T04:46:29.838Z,86.00
2017-10-15T04:48:57.912Z,86.70
2017-10-15T04:51:25.987Z,86.80
2017-10-15T04:53:54.090Z,87.20
2017-10-15T04:56:22.171Z,87.00
2017-10-15T04:58:51.750Z,87.50
2017-10-15T05:01:20.615Z,87.60
2017-10-15T05:03:49.454Z,87.60
2017-10-15T05:06:18.295Z,87.30
2017-10-15T05:08:47.162Z,87.50
2017-10-15T05:11:15.254Z,86.40
2017-10-15T05:13:44.087Z,87.70
2017-10-15T05:16:12.179Z,86.00
2017-10-15T05:18:40.292Z,86.10
2017-10-15T05:21:09.138Z,85.70
2017-10-15T05:23:37.215Z,85.00
2017-10-15T05:26:05.306Z,84.20
2017-10-15T05:28:33.379Z,84.60
2017-10-15T05:31:01.482Z,83.90
2017-10-15T05:35:58.895Z,85.40
2017-10-15T05:38:26.978Z,85.00
2017-10-15T05:40:55.051Z,86.40
2017-10-15T05:43:23.139Z,86.50
2017-10-15T05:45:51.215Z,86.80
2017-10-15T05:48:19.299Z,86.90
2017-10-15T05:50:48.139Z,86.70
2017-10-15T05:53:16.227Z,85.90
2017-10-15T05:55:44.299Z,86.70
2017-10-15T05:58:12.391Z,86.80
2017-10-15T06:00:40.879Z,87.60
2017-10-15T06:03:09.747Z,88.50
2017-10-15T06:05:37.823Z,88.70
2017-10-15T06:08:06.294Z,89.30
2017-10-15T06:10:34.402Z,89.00
2017-10-15T06:15:37.387Z,89.20
2017-10-15T06:18:05.476Z,89.30
2017-10-15T06:20:34.315Z,90.10
2017-10-15T06:23:02.419Z,90.00
2017-10-15T06:25:30.519Z,89.50
2017-10-15T06:27:59.387Z,90.10
2017-10-15T06:30:27.475Z,89.50
2017-10-15T06:32:56.358Z,90.10
2017-10-15T06:35:25.203Z,90.20
2017-10-15T06:37:54.845Z,90.20
2017-10-15T06:40:23.319Z,90.10
2017-10-15T06:42:51.852Z,90.10
2017-10-15T06:45:20.323Z,90.20
2017-10-15T06:47:48.411Z,90.40
2017-10-15T06:50:16.514Z,90.30
2017-10-15T06:52:44.621Z,90.40
2017-10-15T06:55:13.466Z,90.70
2017-10-15T06:57:41.979Z,90.60
2017-10-15T07:00:10.062Z,90.60
2017-10-15T07:02:39.290Z,90.50
2017-10-15T07:05:08.163Z,90.00
2017-10-15T07:07:37.015Z,90.10
2017-10-15T07:10:05.139Z,90.40
2017-10-15T07:12:33.235Z,90.50
2017-10-15T07:15:01.375Z,90.50
2017-10-15T07:17:30.278Z,90.60
2017-10-15T07:19:58.362Z,90.00
2017-10-15T07:22:27.223Z,90.10
2017-10-15T07:24:56.107Z,90.50
2017-10-15T07:27:25.054Z,90.30
2017-10-15T07:29:53.938Z,89.60
2017-10-15T07:32:22.782Z,89.50
2017-10-15T07:34:51.650Z,90.10
2017-10-15T07:37:19.755Z,89.50
2017-10-15T07:39:48.630Z,89.00
2017-10-15T07:42:17.482Z,89.00
2017-10-15T07:44:45.582Z,88.80
2017-10-15T07:47:13.675Z,88.90
2017-10-15T07:49:42.551Z,89.90
2017-10-15T07:52:10.639Z,89.30
2017-10-15T07:54:39.510Z,89.50
2017-10-15T07:57:07.994Z,88.70
2017-10-15T07:59:36.098Z,86.60
2017-10-15T08:02:05.739Z,85.90
2017-10-15T08:04:33.849Z,85.20
2017-10-15T08:07:01.934Z,84.60
2017-10-15T08:09:30.799Z,85.20
2017-10-15T08:11:58.911Z,85.00
2017-10-15T08:14:26.999Z,85.50
2017-10-15T08:16:55.119Z,84.70
2017-10-15T08:19:23.202Z,82.90
2017-10-15T08:21:51.683Z,80.20
2017-10-15T08:24:21.307Z,81.10
2017-10-15T08:26:50.158Z,83.60
2017-10-15T08:29:18.245Z,82.20
2017-10-15T08:31:46.346Z,80.80
2017-10-15T08:34:15.209Z,81.10
2017-10-15T08:36:43.314Z,80.70
2017-10-15T08:39:11.799Z,78.50
2017-10-15T08:41:40.299Z,76.40
2017-10-15T08:44:08.387Z,77.50
2017-10-15T08:46:36.890Z,77.40
2017-10-15T08:49:05.008Z,76.80
2017-10-15T08:51:33.859Z,75.70
2017-10-15T08:54:01.947Z,75.10
2017-10-15T08:56:31.575Z,74.60
2017-10-15T08:58:59.665Z,75.10
2017-10-15T09:01:27.755Z,77.10
2017-10-15T09:03:55.871Z,77.30
2017-10-15T09:06:23.954Z,77.00
2017-10-15T09:08:52.835Z,77.70
2017-10-15T09:11:21.339Z,74.90
2017-10-15T09:13:49.443Z,74.30
2017-10-15T09:16:18.331Z,75.60
2017-10-15T09:18:46.487Z,76.10
2017-10-15T09:21:14.591Z,77.70
2017-10-15T09:23:42.711Z,76.20
2017-10-15T09:26:11.563Z,77.30
2017-10-15T09:28:40.050Z,76.80
2017-10-15T09:31:08.204Z,77.50
2017-10-15T09:33:37.063Z,76.20
2017-10-15T09:36:05.167Z,72.20
2017-10-15T09:38:33.245Z,72.50
2017-10-15T09:41:02.118Z,70.60
2017-10-15T09:43:31.021Z,71.50
2017-10-15T09:45:59.095Z,70.60
2017-10-15T09:48:27.203Z,70.10
2017-10-15T09:50:55.318Z,69.40
2017-10-15T09:53:23.802Z,69.30
2017-10-15T09:55:52.712Z,69.20
2017-10-15T09:58:20.820Z,68.00
2017-10-15T10:00:48.915Z,66.60
2017-10-15T10:03:17.766Z,64.60
2017-10-15T10:05:45.879Z,63.60
2017-10-15T10:08:14.359Z,59.90
2017-10-15T10:10:43.263Z,55.60
2017-10-15T10:13:11.364Z,49.20
2017-10-15T10:15:39.483Z,45.10
2017-10-15T10:18:08.350Z,43.30
2017-10-15T10:20:36.454Z,40.40
2017-10-15T10:23:04.950Z,38.40
2017-10-15T10:25:33.043Z,36.80
2017-10-15T10:28:01.190Z,35.80
2017-10-15T10:30:29.287Z,34.00
2017-10-15T10:32:57.395Z,32.00
2017-10-15T10:35:25.478Z,32.30
2017-10-15T10:37:53.582Z,33.20
2017-10-15T10:40:21.686Z,32.10
2017-10-15T10:42:49.779Z,32.20
2017-10-15T10:45:19.407Z,35.50
2017-10-15T10:47:47.487Z,35.20
2017-10-15T10:50:15.606Z,36.90
2017-10-15T10:52:43.724Z,36.90
2017-10-15T10:55:12.190Z,39.90
2017-10-15T10:57:40.315Z,43.40
2017-10-15T11:00:08.403Z,43.70
2017-10-15T11:02:38.019Z,44.10
2017-10-15T11:05:06.131Z,45.10
2017-10-15T11:07:34.231Z,44.90
2017-10-15T11:10:02.314Z,44.20
2017-10-15T11:12:31.190Z,44.90
2017-10-15T11:15:00.804Z,45.90
2017-10-15T11:17:28.932Z,46.50
2017-10-15T11:19:57.011Z,47.30
2017-10-15T11:22:25.131Z,48.00
2017-10-15T11:24:53.343Z,48.80
2017-10-15T11:27:21.434Z,49.80
2017-10-15T11:29:50.816Z,51.60
2017-10-15T11:32:19.622Z,53.50
2017-10-15T11:34:47.714Z,54.10
2017-10-15T11:37:16.607Z,53.90
2017-10-15T11:39:44.683Z,53.30
2017-10-15T11:42:13.921Z,53.30
2017-10-15T11:44:42.107Z,54.00
2017-10-15T11:47:11.690Z,54.20
2017-10-15T11:49:39.776Z,54.60
2017-10-15T11:52:08.651Z,55.10
2017-10-15T11:54:36.810Z,56.00
2017-10-15T11:57:04.912Z,56.40
2017-10-15T11:59:32.990Z,56.50
2017-10-15T12:02:01.094Z,57.30
2017-10-15T12:04:30.514Z,58.30
2017-10-15T12:06:59.751Z,57.60
2017-10-15T12:09:28.611Z,58.00
2017-10-15T12:11:57.483Z,58.70
2017-10-15T12:14:25.594Z,58.90
2017-10-15T12:16:54.085Z,59.90
2017-10-15T12:19:22.167Z,59.50
2017-10-15T12:21:50.262Z,58.60
2017-10-15T12:24:19.159Z,58.00
2017-10-15T12:26:47.258Z,57.70
2017-10-15T12:29:16.126Z,56.80
2017-10-15T12:31:44.215Z,55.90
2017-10-15T12:34:12.323Z,53.90
2017-10-15T12:36:40.406Z,50.70
2017-10-15T12:39:08.519Z,49.30
2017-10-15T12:41:36.634Z,49.70
2017-10-15T12:44:05.523Z,50.90
2017-10-15T12:46:33.607Z,50.90
2017-10-15T12:49:01.718Z,52.00
2017-10-15T12:51:29.807Z,53.70
2017-10-15T12:53:57.895Z,55.50
2017-10-15T12:56:27.160Z,55.60
2017-10-15T12:58:55.254Z,56.20
2017-10-15T13:01:23.363Z,57.60
2017-10-15T13:03:51.474Z,55.30
2017-10-15T13:06:20.338Z,48.40
2017-10-15T13:08:48.439Z,43.10
2017-10-15T13:11:16.535Z,36.30
2017-10-15T13:13:44.675Z,38.80
2017-10-15T13:16:13.166Z,40.00
2017-10-15T13:18:41.223Z,40.20
2017-10-15T13:21:09.743Z,41.10
2017-10-15T13:23:37.828Z,41.40
2017-10-15T13:26:06.694Z,42.30
2017-10-15T13:28:34.886Z,41.90
2017-10-15T13:31:02.991Z,41.90
2017-10-15T13:33:31.094Z,40.60
2017-10-15T13:38:29.329Z,32.10
2017-10-15T13:45:56.233Z,27.30
2017-10-15T13:48:25.070Z,27.80
2017-10-15T13:50:53.926Z,26.20
2017-10-15T13:53:22.022Z,26.00
2017-10-15T13:55:50.870Z,24.90
2017-10-15T13:58:19.026Z,24.90
2017-10-15T14:00:47.531Z,25.60
2017-10-15T14:03:15.618Z,24.30
2017-10-15T14:05:43.726Z,23.60
2017-10-15T14:08:12.212Z,23.80
2017-10-15T14:10:40.332Z,24.00
2017-10-15T14:13:08.419Z,25.70
2017-10-15T14:15:36.528Z,28.70
2017-10-15T14:18:04.626Z,31.60
2017-10-15T14:20:34.234Z,34.70
2017-10-15T14:23:03.091Z,38.90
2017-10-15T14:25:31.221Z,41.00
2017-10-15T14:28:00.062Z,43.70
2017-10-15T14:30:28.147Z,44.90
2017-10-15T14:32:56.251Z,45.90
2017-10-15T14:35:24.375Z,46.30
2017-10-15T14:37:52.463Z,46.40
2017-10-15T14:40:20.943Z,47.50
2017-10-15T14:42:49.062Z,48.30
2017-10-15T14:45:17.894Z,48.90
2017-10-15T14:47:46.007Z,49.10
2017-10-15T14:50:14.863Z,49.80
2017-10-15T14:52:42.958Z,50.10
2017-10-15T14:55:11.468Z,50.60
2017-10-15T14:57:40.323Z,51.30
2017-10-15T15:00:09.203Z,51.60
2017-10-15T15:02:37.298Z,51.90
2017-10-15T15:05:06.155Z,53.20
2017-10-15T15:07:34.263Z,53.30
2017-10-15T15:10:03.147Z,54.10
2017-10-15T15:12:32.060Z,53.90
2017-10-15T15:15:00.131Z,53.90
2017-10-15T15:17:28.264Z,54.10
2017-10-15T15:19:57.111Z,54.50
2017-10-15T15:22:25.200Z,54.40
2017-10-15T15:24:53.309Z,54.80
2017-10-15T15:27:21.423Z,54.90
2017-10-15T15:29:49.510Z,55.10
2017-10-15T15:32:17.620Z,55.60
2017-10-15T15:34:45.743Z,55.40
2017-10-15T15:37:13.854Z,56.10
2017-10-15T15:39:41.971Z,56.50
2017-10-15T15:42:10.054Z,57.00
2017-10-15T15:44:38.168Z,56.90
2017-10-15T15:47:08.447Z,57.20
2017-10-15T15:49:36.530Z,57.80
2017-10-15T15:52:04.643Z,58.10
2017-10-15T15:57:02.108Z,58.80
2017-10-15T15:59:30.944Z,59.40
2017-10-15T16:01:59.819Z,60.20
2017-10-15T16:04:28.681Z,60.50
2017-10-15T16:06:56.804Z,61.20
2017-10-15T16:09:25.646Z,64.00
2017-10-15T16:11:53.806Z,64.70
2017-10-15T16:14:22.274Z,65.60
2017-10-15T16:16:50.363Z,67.20
2017-10-15T16:19:18.449Z,67.50
2017-10-15T16:21:46.570Z,68.10
2017-10-15T16:24:14.679Z,68.20
2017-10-15T16:26:43.597Z,70.10
2017-10-15T16:29:11.691Z,70.30
2017-10-15T16:31:40.542Z,71.80
2017-10-15T16:34:08.751Z,72.10
2017-10-15T16:36:37.624Z,73.50
2017-10-15T16:39:05.742Z,72.70
2017-10-15T16:41:33.836Z,73.00
2017-10-15T16:44:01.960Z,72.90
2017-10-15T16:46:30.091Z,73.60
2017-10-15T16:48:58.174Z,73.40
2017-10-15T16:51:26.298Z,74.60
2017-10-15T16:53:54.396Z,75.10
2017-10-15T16:56:23.643Z,76.70
2017-10-15T16:58:52.155Z,76.40
2017-10-15T17:01:20.238Z,76.30
2017-10-15T17:03:48.363Z,76.50
2017-10-15T17:06:17.219Z,76.80
2017-10-15T17:08:45.309Z,77.40
2017-10-15T17:11:14.184Z,77.20
2017-10-15T17:13:42.286Z,80.20
2017-10-15T17:16:11.500Z,78.80
2017-10-15T17:18:40.375Z,79.60
2017-10-15T17:21:08.466Z,78.60
2017-10-15T17:23:37.696Z,79.00
2017-10-15T17:26:06.938Z,78.90
2017-10-15T17:28:36.575Z,79.20
2017-10-15T17:31:05.434Z,80.50
2017-10-15T17:33:34.311Z,79.80
2017-10-15T17:36:02.818Z,79.30
2017-10-15T17:38:30.911Z,79.30
2017-10-15T17:40:59.800Z,78.50
2017-10-15T17:45:58.178Z,80.10
2017-10-15T17:48:27.062Z,79.50
2017-10-15T17:50:55.214Z,80.30
2017-10-15T17:53:23.694Z,80.70
2017-10-15T17:55:51.792Z,81.20
2017-10-15T17:58:21.386Z,81.30
2017-10-15T18:00:50.274Z,81.80
2017-10-15T18:03:18.382Z,81.70
2017-10-15T18:05:47.239Z,83.00
2017-10-15T18:08:15.330Z,82.50
2017-10-15T18:10:43.461Z,82.70
2017-10-15T18:13:11.564Z,83.10
2017-10-15T18:15:39.660Z,83.50
2017-10-15T18:18:09.255Z,84.60
2017-10-15T18:20:38.876Z,84.80
2017-10-15T18:23:06.978Z,84.30
2017-10-15T18:25:35.103Z,83.10
2017-10-15T18:30:33.344Z,83.20
2017-10-15T18:33:01.455Z,82.70
2017-10-15T18:35:29.555Z,83.10
2017-10-15T18:37:57.645Z,83.50
2017-10-15T18:40:26.521Z,83.70
2017-10-15T18:42:54.636Z,83.10
2017-10-15T18:45:22.743Z,82.80
2017-10-15T18:47:50.861Z,82.90
2017-10-15T18:50:19.757Z,83.80
2017-10-15T18:52:50.068Z,82.40
2017-10-15T18:55:18.646Z,82.30
2017-10-15T18:57:46.752Z,81.80
2017-10-15T19:00:14.870Z,82.50
2017-10-15T19:02:42.959Z,83.30
2017-10-15T19:05:11.815Z,84.20
2017-10-15T19:07:39.930Z,83.90
2017-10-15T19:12:44.721Z,83.90
2017-10-15T19:15:12.811Z,84.00
2017-10-15T19:17:40.912Z,83.60
2017-10-15T19:20:09.030Z,83.40
2017-10-15T19:22:37.121Z,83.60
2017-10-15T19:27:34.995Z,83.00
2017-10-15T19:30:03.091Z,82.70
2017-10-15T19:32:31.196Z,82.10
2017-10-15T19:34:59.323Z,83.30
2017-10-15T19:37:27.418Z,83.60
2017-10-15T19:39:55.509Z,83.50
2017-10-15T19:42:23.612Z,84.20
2017-10-15T19:44:51.798Z,85.20
2017-10-15T19:47:20.323Z,85.80
2017-10-15T19:52:18.591Z,87.30
2017-10-15T19:54:48.206Z,87.20
2017-10-15T19:59:45.687Z,87.80
2017-10-15T20:04:43.127Z,88.50
2017-10-15T20:09:40.599Z,89.00
2017-10-15T20:12:09.095Z,89.30
2017-10-15T20:14:37.963Z,89.10
2017-10-15T20:17:07.061Z,89.30
2017-10-15T20:19:35.231Z,89.30
2017-10-15T20:22:03.325Z,89.40
2017-10-15T20:24:31.973Z,89.80
2017-10-15T20:27:00.827Z,90.30
2017-10-15T20:29:28.930Z,90.90
2017-10-15T20:31:57.799Z,91.40
2017-10-15T20:34:25.950Z,91.10
2017-10-15T20:36:54.038Z,91.10
2017-10-15T20:39:22.128Z,91.00
2017-10-15T20:41:50.258Z,91.10
2017-10-15T20:44:18.349Z,91.10
2017-10-15T20:46:46.828Z,91.10
2017-10-15T20:49:15.714Z,90.90
2017-10-15T20:51:44.569Z,91.00
2017-10-15T20:54:12.662Z,90.70
2017-10-15T20:56:40.820Z,90.90
2017-10-15T20:59:08.886Z,90.70
2017-10-15T21:01:37.378Z,90.60
2017-10-15T21:04:05.528Z,90.60
2017-10-15T21:06:33.603Z,90.40
2017-10-15T21:09:03.242Z,90.30
2017-10-15T21:11:32.192Z,90.20
2017-10-15T21:14:00.275Z,90.20
2017-10-15T21:16:29.134Z,90.30
2017-10-15T21:18:57.246Z,90.20
2017-10-15T21:21:27.791Z,90.20
2017-10-15T21:23:55.900Z,90.20
2017-10-15T21:26:25.507Z,90.30
2017-10-15T21:28:53.627Z,90.20
2017-10-15T21:31:22.490Z,90.00
2017-10-15T21:33:50.583Z,90.30
2017-10-15T21:36:18.702Z,90.10
2017-10-15T21:38:46.783Z,90.00
2017-10-15T21:41:14.900Z,90.30
2017-10-15T21:43:43.760Z,90.40
2017-10-15T21:46:11.862Z,90.20
2017-10-15T21:48:40.750Z,90.30
2017-10-15T21:51:09.970Z,89.90
2017-10-15T21:53:38.073Z,89.80
2017-10-15T21:56:06.199Z,90.30
2017-10-15T21:58:35.058Z,91.00
2017-10-15T22:01:03.170Z,90.60
2017-10-15T22:03:31.381Z,90.80
2017-10-15T22:05:59.467Z,90.70
2017-10-15T22:08:27.620Z,90.50
2017-10-15T22:10:55.708Z,90.40
2017-10-15T22:13:23.799Z,90.60
2017-10-15T22:15:51.902Z,90.80
2017-10-15T22:18:38.475Z,91.10
2017-10-15T22:21:12.283Z,90.90
2017-10-15T22:23:40.371Z,91.10
2017-10-15T22:26:08.472Z,90.90
2017-10-15T22:28:38.091Z,90.80
2017-10-15T22:31:06.357Z,90.50
2017-10-15T22:33:34.535Z,90.40
2017-10-15T22:36:02.635Z,91.00
2017-10-15T22:38:30.749Z,91.00
2017-10-15T22:40:58.843Z,90.60
2017-10-15T22:43:27.700Z,90.00
2017-10-15T22:45:55.828Z,90.20
2017-10-15T22:48:23.931Z,89.80
2017-10-15T22:50:52.051Z,89.60
2017-10-15T22:53:20.164Z,89.50
2017-10-15T22:55:48.270Z,89.80
2017-10-15T22:58:16.384Z,89.70
2017-10-15T23:00:44.485Z,89.30
2017-10-15T23:03:12.602Z,90.00
2017-10-15T23:05:42.195Z,90.40
2017-10-15T23:08:10.289Z,90.30
2017-10-15T23:10:38.430Z,90.40
2017-10-15T23:13:07.293Z,90.30
2017-10-15T23:15:36.519Z,90.10
2017-10-15T23:18:05.379Z,89.70
2017-10-15T23:20:33.500Z,90.10
2017-10-15T23:23:02.375Z,90.30
2017-10-15T23:25:31.830Z,90.20
2017-10-15T23:28:00.413Z,90.10
2017-10-15T23:30:28.524Z,90.20
2017-10-15T23:32:56.610Z,90.30
2017-10-15T23:35:24.735Z,90.40
2017-10-15T23:37:52.827Z,90.10
2017-10-15T23:40:20.914Z,90.10
2017-10-15T23:42:49.034Z,90.30
2017-10-15T23:45:17.129Z,90.40
2017-10-15T23:47:45.254Z,90.50
2017-10-15T23:50:13.345Z,90.50
2017-10-15T23:52:41.459Z,90.50
2017-10-15T23:55:09.575Z,90.00
2017-10-15T23:57:38.807Z,90.00
